Time;durP1;ratioP1;P1;durP2;ratioP2;P2;SDS_P1;SDS_P2;PMS_P1;PMS_P2;Temp;Humidity;BMP_temperature;BMP_pressure;BME280_temperature;BME280_humidity;BME280_pressure;Samples;Min_cycle;Max_cycle;Signal;HPM_P1;HPM_P2
2024/03/26 00:02:17;;;;;;;23.48;8.15;;;4.60;99.90;;;;;;5015102;28;20034;-72
2024/03/26 00:04:43;;;;;;;20.70;7.88;;;4.70;99.90;;;;;;5013561;28;20022;-72
2024/03/26 00:07:09;;;;;;;20.08;7.07;;;4.60;99.90;;;;;;5014826;28;20049;-72
2024/03/26 00:09:34;;;;;;;20.90;7.75;;;4.60;99.90;;;;;;5015084;28;20056;-70
2024/03/26 00:12:00;;;;;;;24.77;7.85;;;4.60;99.90;;;;;;5015322;28;20088;-71
2024/03/26 00:14:26;;;;;;;18.65;7.47;;;4.60;99.90;;;;;;5015018;28;20034;-72
2024/03/26 00:16:52;;;;;;;22.60;7.72;;;4.70;99.90;;;;;;5012942;28;20041;-70
2024/03/26 00:19:17;;;;;;;15.98;7.93;;;4.50;99.90;;;;;;5014978;28;20030;-71
2024/03/26 00:21:43;;;;;;;18.35;7.68;;;4.50;99.90;;;;;;5015347;28;20027;-72
2024/03/26 00:24:09;;;;;;;21.25;7.70;;;4.50;99.90;;;;;;5013568;28;20049;-71
2024/03/26 00:26:35;;;;;;;18.77;7.93;;;4.50;99.90;;;;;;5014093;28;20038;-71
2024/03/26 00:29:01;;;;;;;19.15;8.10;;;4.50;99.90;;;;;;5013592;28;20046;-71
2024/03/26 00:31:31;;;;;;;24.25;7.97;;;4.50;99.90;;;;;;5014297;28;20033;-70
2024/03/26 00:33:58;;;;;;;25.33;8.13;;;4.50;99.90;;;;;;5014490;28;20026;-72
2024/03/26 00:36:24;;;;;;;18.70;7.75;;;4.50;99.90;;;;;;5013945;28;20102;-70
2024/03/26 00:38:49;;;;;;;20.95;7.90;;;4.40;99.90;;;;;;5013098;28;20077;-71
2024/03/26 00:41:15;;;;;;;17.77;7.43;;;4.40;99.90;;;;;;5015262;28;20030;-72
2024/03/26 00:43:40;;;;;;;19.33;8.05;;;4.40;99.90;;;;;;5014402;28;20097;-72
2024/03/26 00:46:06;;;;;;;21.23;7.65;;;4.40;99.90;;;;;;5012898;28;20117;-71
2024/03/26 00:48:32;;;;;;;14.43;7.25;;;4.40;99.90;;;;;;5014884;28;20086;-69
2024/03/26 00:50:57;;;;;;;18.77;7.35;;;4.30;99.90;;;;;;5013943;28;20042;-70
2024/03/26 00:53:23;;;;;;;17.20;6.93;;;4.30;99.90;;;;;;5013290;28;20032;-69
2024/03/26 00:55:48;;;;;;;16.67;7.20;;;4.30;99.90;;;;;;5014224;28;20033;-71
2024/03/26 00:58:14;;;;;;;16.52;6.97;;;4.20;99.90;;;;;;5015110;28;20477;-72
2024/03/26 01:00:40;;;;;;;17.17;7.03;;;4.20;99.90;;;;;;5013785;28;20030;-71
2024/03/26 01:03:05;;;;;;;18.60;7.40;;;4.20;99.90;;;;;;5012064;28;20089;-70
2024/03/26 01:05:31;;;;;;;14.38;6.75;;;4.20;99.90;;;;;;5014008;28;21067;-71
2024/03/26 01:07:57;;;;;;;20.10;6.57;;;4.20;99.90;;;;;;5014041;28;20037;-69
2024/03/26 01:10:22;;;;;;;18.63;7.00;;;4.20;99.90;;;;;;5014647;28;20049;-72
2024/03/26 01:12:48;;;;;;;16.40;6.68;;;4.20;99.90;;;;;;5013427;28;20032;-71
2024/03/26 01:15:13;;;;;;;25.85;7.18;;;4.20;99.90;;;;;;5012744;28;20049;-71
2024/03/26 01:17:39;;;;;;;18.45;6.80;;;4.10;99.90;;;;;;5013842;28;20045;-70
2024/03/26 01:20:06;;;;;;;19.75;6.88;;;4.10;99.90;;;;;;5013833;28;20018;-71
2024/03/26 01:22:31;;;;;;;15.25;6.80;;;4.10;99.90;;;;;;5013199;28;20068;-70
2024/03/26 01:24:57;;;;;;;18.08;6.57;;;4.20;99.90;;;;;;5012147;28;20030;-72
2024/03/26 01:27:23;;;;;;;13.48;6.50;;;4.00;99.90;;;;;;5013872;28;20018;-71
2024/03/26 01:29:48;;;;;;;16.02;6.75;;;4.00;99.90;;;;;;5013761;28;20028;-71
2024/03/26 01:32:14;;;;;;;19.45;6.78;;;4.00;99.90;;;;;;5013401;28;20030;-74
2024/03/26 01:34:39;;;;;;;18.25;6.18;;;4.00;99.90;;;;;;5011675;28;20088;-71
2024/03/26 01:37:05;;;;;;;15.35;7.50;;;4.00;99.90;;;;;;5013126;28;20034;-71
2024/03/26 01:39:30;;;;;;;17.25;6.63;;;3.90;99.90;;;;;;5013021;28;20031;-71
2024/03/26 01:41:56;;;;;;;16.10;6.57;;;3.90;99.90;;;;;;5012820;28;20124;-71
2024/03/26 01:44:21;;;;;;;13.60;6.13;;;3.80;99.90;;;;;;5012628;28;20029;-72
2024/03/26 01:46:47;;;;;;;19.75;6.57;;;3.80;99.90;;;;;;5013399;28;20061;-71
2024/03/26 01:49:15;;;;;;;19.83;6.63;;;3.80;99.90;;;;;;5013444;28;20053;-71
2024/03/26 01:51:42;;;;;;;13.98;6.13;;;3.70;99.90;;;;;;5011438;28;20941;-71
2024/03/26 01:54:08;;;;;;;20.90;6.28;;;3.60;99.90;;;;;;5018344;28;20057;-72
2024/03/26 01:56:34;;;;;;;16.42;6.85;;;3.60;99.90;;;;;;5012571;28;20026;-71
2024/03/26 01:59:00;;;;;;;17.42;6.53;;;3.50;99.90;;;;;;5013061;28;20060;-70
2024/03/26 02:01:30;;;;;;;17.33;6.88;;;3.50;99.90;;;;;;5011581;28;20068;-71
2024/03/26 02:03:56;;;;;;;16.45;6.55;;;3.50;99.90;;;;;;5012147;28;20052;-71
2024/03/26 02:06:22;;;;;;;22.13;6.35;;;3.40;99.90;;;;;;5012476;28;20050;-70
2024/03/26 02:08:48;;;;;;;22.65;6.82;;;3.40;99.90;;;;;;5011309;28;20033;-72
2024/03/26 02:11:15;;;;;;;17.92;6.35;;;3.40;99.90;;;;;;5012801;28;20097;-71
2024/03/26 02:13:44;;;;;;;18.05;6.72;;;3.40;99.90;;;;;;5012752;28;20034;-70
2024/03/26 02:16:10;;;;;;;21.65;6.32;;;3.30;99.90;;;;;;5012732;28;20023;-71
2024/03/26 02:18:35;;;;;;;14.57;6.38;;;3.30;99.90;;;;;;5012341;28;20506;-71
2024/03/26 02:21:01;;;;;;;16.13;5.93;;;3.30;99.90;;;;;;5012712;28;20044;-70
2024/03/26 02:23:26;;;;;;;15.65;6.68;;;3.30;99.90;;;;;;5012581;28;20042;-71
2024/03/26 02:25:52;;;;;;;16.60;6.15;;;3.20;99.90;;;;;;5013326;28;20029;-71
2024/03/26 02:28:17;;;;;;;18.23;6.85;;;3.20;99.90;;;;;;5012853;28;20525;-73
2024/03/26 02:30:43;;;;;;;14.30;6.25;;;3.20;99.90;;;;;;5012635;28;20025;-71
2024/03/26 02:33:08;;;;;;;20.88;6.25;;;3.20;99.90;;;;;;5013723;28;20113;-70
2024/03/26 02:35:34;;;;;;;17.77;6.28;;;3.10;99.90;;;;;;5013639;28;20033;-71
2024/03/26 02:37:59;;;;;;;13.63;5.43;;;3.10;99.90;;;;;;5012621;28;20045;-69
2024/03/26 02:40:25;;;;;;;21.80;6.15;;;3.20;99.90;;;;;;5012899;28;20053;-69
2024/03/26 02:42:51;;;;;;;16.48;6.32;;;3.10;99.90;;;;;;5012672;28;20037;-72
2024/03/26 02:45:16;;;;;;;14.95;6.03;;;3.10;99.90;;;;;;5010948;28;20490;-72
2024/03/26 02:47:42;;;;;;;15.98;5.72;;;3.10;99.90;;;;;;5013154;28;20026;-71
2024/03/26 02:50:08;;;;;;;14.63;5.90;;;3.10;99.90;;;;;;5012805;28;20018;-71
2024/03/26 02:52:35;;;;;;;17.50;6.38;;;3.10;99.90;;;;;;5010908;28;20030;-72
2024/03/26 02:55:01;;;;;;;18.23;6.20;;;3.10;99.90;;;;;;5010986;28;20034;-72
2024/03/26 02:57:26;;;;;;;17.92;6.35;;;3.10;99.90;;;;;;5011565;28;20040;-72
2024/03/26 02:59:52;;;;;;;16.63;6.07;;;3.10;99.90;;;;;;5011868;28;20030;-70
2024/03/26 03:02:19;;;;;;;17.38;6.13;;;3.10;99.90;;;;;;5011606;28;20057;-71
2024/03/26 03:04:45;;;;;;;17.05;5.90;;;3.10;99.90;;;;;;5012402;28;20033;-70
2024/03/26 03:07:10;;;;;;;15.45;6.70;;;3.10;99.90;;;;;;5011495;28;20039;-70
2024/03/26 03:09:36;;;;;;;15.43;6.05;;;3.10;99.90;;;;;;5012602;28;20120;-72
2024/03/26 03:12:01;;;;;;;13.40;6.13;;;3.00;99.90;;;;;;5018384;28;20030;-71
2024/03/26 03:14:27;;;;;;;19.20;6.53;;;3.00;99.90;;;;;;5011496;28;20045;-71
2024/03/26 03:16:53;;;;;;;20.35;6.00;;;3.00;99.90;;;;;;5015575;28;20046;-71
2024/03/26 03:19:18;;;;;;;18.15;6.57;;;3.00;99.90;;;;;;5016023;28;20077;-69
2024/03/26 03:21:44;;;;;;;17.95;5.65;;;2.90;99.90;;;;;;5015463;28;20030;-69
2024/03/26 03:24:09;;;;;;;14.80;6.72;;;2.90;99.90;;;;;;5016871;28;20030;-71
2024/03/26 03:26:35;;;;;;;15.05;5.43;;;2.90;99.90;;;;;;5015988;28;20019;-71
2024/03/26 03:29:00;;;;;;;15.65;6.50;;;2.90;99.90;;;;;;5015643;28;20030;-72
2024/03/26 03:31:26;;;;;;;14.77;5.70;;;2.90;99.90;;;;;;5015397;28;20114;-70
2024/03/26 03:33:51;;;;;;;15.00;6.10;;;2.90;99.90;;;;;;5014146;28;20025;-70
2024/03/26 03:36:17;;;;;;;12.85;5.88;;;2.90;99.90;;;;;;5013764;28;20057;-72
2024/03/26 03:38:43;;;;;;;20.08;6.88;;;2.90;99.90;;;;;;5014126;28;20065;-70
2024/03/26 03:41:08;;;;;;;18.15;6.07;;;2.80;99.90;;;;;;5015511;28;20351;-71
2024/03/26 03:43:34;;;;;;;18.48;6.10;;;2.80;99.90;;;;;;5013921;28;20049;-72
2024/03/26 03:46:00;;;;;;;17.25;6.90;;;2.90;99.90;;;;;;5015906;28;20038;-71
2024/03/26 03:48:25;;;;;;;14.85;7.10;;;2.80;99.90;;;;;;5013670;28;20277;-72
2024/03/26 03:50:51;;;;;;;17.45;6.75;;;2.90;99.90;;;;;;5014047;28;20037;-72
2024/03/26 03:53:17;;;;;;;19.40;6.88;;;2.80;99.90;;;;;;5016013;28;20030;-71
2024/03/26 03:55:42;;;;;;;17.17;6.18;;;2.80;99.90;;;;;;5015653;28;20022;-70
2024/03/26 03:58:10;;;;;;;17.88;7.07;;;2.80;99.90;;;;;;5015694;28;20086;-72
2024/03/26 04:00:36;;;;;;;17.10;6.00;;;2.80;99.90;;;;;;5015679;28;20109;-71
2024/03/26 04:03:02;;;;;;;15.93;6.25;;;2.80;99.90;;;;;;5013492;28;20100;-71
2024/03/26 04:05:27;;;;;;;17.55;7.05;;;2.80;99.90;;;;;;5015620;28;20723;-70
2024/03/26 04:07:53;;;;;;;22.70;7.50;;;2.80;99.90;;;;;;5013602;28;20038;-70
2024/03/26 04:10:18;;;;;;;16.80;6.85;;;2.80;99.90;;;;;;5014389;28;20026;-72
2024/03/26 04:12:44;;;;;;;24.08;6.78;;;2.80;99.90;;;;;;5015032;28;20022;-73
2024/03/26 04:15:10;;;;;;;19.52;7.50;;;2.80;99.90;;;;;;5015321;28;20094;-72
2024/03/26 04:17:36;;;;;;;18.65;6.95;;;2.80;99.90;;;;;;5015001;28;20026;-70
2024/03/26 04:20:01;;;;;;;20.92;7.35;;;2.80;99.90;;;;;;5014947;28;21397;-70
2024/03/26 04:22:27;;;;;;;16.88;7.20;;;2.80;99.90;;;;;;5013458;28;20046;-72
2024/03/26 04:24:53;;;;;;;20.80;7.10;;;2.80;99.90;;;;;;5014680;28;20030;-72
2024/03/26 04:27:18;;;;;;;17.30;6.97;;;2.70;99.90;;;;;;5013711;28;20540;-72
2024/03/26 04:29:44;;;;;;;21.45;8.15;;;2.70;99.90;;;;;;5015460;28;20026;-71
2024/03/26 04:32:09;;;;;;;22.75;7.72;;;2.70;99.90;;;;;;5015295;28;20034;-70
2024/03/26 04:34:35;;;;;;;23.13;8.40;;;2.70;99.90;;;;;;5014044;28;20030;-71
2024/03/26 04:37:03;;;;;;;21.83;7.68;;;2.70;99.90;;;;;;5016530;28;20024;-69
2024/03/26 04:39:29;;;;;;;16.13;7.20;;;2.60;99.90;;;;;;5015161;28;20037;-69
2024/03/26 04:41:55;;;;;;;21.13;7.60;;;2.70;99.90;;;;;;5013797;28;20042;-71
2024/03/26 04:44:21;;;;;;;21.10;7.85;;;2.70;99.90;;;;;;5013057;28;20438;-71
2024/03/26 04:46:47;;;;;;;23.08;7.75;;;2.70;99.90;;;;;;5011447;28;20120;-71
2024/03/26 04:49:12;;;;;;;20.63;8.40;;;2.70;99.90;;;;;;5013079;28;20069;-73
2024/03/26 04:51:38;;;;;;;24.23;7.90;;;2.70;99.90;;;;;;5013516;28;20030;-73
2024/03/26 04:54:04;;;;;;;26.92;8.52;;;2.70;99.90;;;;;;5012324;28;20074;-71
2024/03/26 04:56:30;;;;;;;19.90;7.78;;;2.70;99.90;;;;;;5012514;28;20030;-72
2024/03/26 04:58:56;;;;;;;23.65;7.80;;;2.70;99.90;;;;;;5012563;28;20106;-72
2024/03/26 05:01:21;;;;;;;18.90;7.68;;;2.70;99.90;;;;;;5012704;28;20101;-72
2024/03/26 05:03:47;;;;;;;29.30;7.68;;;2.70;99.90;;;;;;5013675;28;20052;-71
2024/03/26 05:06:12;;;;;;;23.90;8.70;;;2.80;99.90;;;;;;5014285;28;20030;-74
2024/03/26 05:08:38;;;;;;;17.38;7.53;;;2.80;99.90;;;;;;5013666;28;20030;-71
2024/03/26 05:11:04;;;;;;;21.38;7.10;;;2.80;99.90;;;;;;5013813;28;20030;-71
2024/03/26 05:13:29;;;;;;;24.58;7.82;;;2.80;99.90;;;;;;5012184;28;20018;-74
2024/03/26 05:15:57;;;;;;;21.23;7.30;;;2.80;99.90;;;;;;5012209;28;20026;-71
2024/03/26 05:18:23;;;;;;;17.38;6.90;;;2.80;99.90;;;;;;5013556;28;20110;-72
2024/03/26 05:20:48;;;;;;;17.63;7.07;;;2.80;99.90;;;;;;5013234;28;20030;-72
2024/03/26 05:23:14;;;;;;;21.58;7.65;;;2.80;99.90;;;;;;5012431;28;20145;-75
2024/03/26 05:25:39;;;;;;;18.67;7.00;;;2.80;99.90;;;;;;5013185;28;20026;-73
2024/03/26 05:28:05;;;;;;;18.08;6.32;;;2.80;99.90;;;;;;5012553;28;20069;-72
2024/03/26 05:30:31;;;;;;;16.25;6.80;;;2.80;99.90;;;;;;5013550;28;20022;-72
2024/03/26 05:32:56;;;;;;;24.75;6.30;;;2.80;99.90;;;;;;5012219;28;20038;-72
2024/03/26 05:35:22;;;;;;;17.10;6.82;;;2.80;99.90;;;;;;5014113;28;20026;-73
2024/03/26 05:37:48;;;;;;;16.67;6.65;;;2.90;99.90;;;;;;5012149;28;20171;-69
2024/03/26 05:40:14;;;;;;;16.92;6.28;;;2.90;99.90;;;;;;5011907;28;20037;-71
2024/03/26 05:42:40;;;;;;;20.17;6.40;;;2.90;99.90;;;;;;5013385;28;20057;-74
2024/03/26 05:45:06;;;;;;;15.13;6.63;;;2.90;99.90;;;;;;5013395;28;20034;-71
2024/03/26 05:47:32;;;;;;;18.40;6.75;;;2.90;99.90;;;;;;5011061;28;20031;-73
2024/03/26 05:49:57;;;;;;;23.58;5.95;;;2.90;99.90;;;;;;5012452;28;20029;-72
2024/03/26 05:52:23;;;;;;;22.27;6.30;;;3.00;99.90;;;;;;5012083;28;20022;-71
2024/03/26 05:54:49;;;;;;;14.63;5.40;;;3.00;99.90;;;;;;5010643;28;20040;-73
2024/03/26 05:57:14;;;;;;;16.50;5.90;;;3.00;99.90;;;;;;5013818;28;20434;-73
2024/03/26 05:59:40;;;;;;;14.95;5.65;;;3.10;99.90;;;;;;5009943;28;20022;-69
2024/03/26 06:02:05;;;;;;;20.00;5.80;;;3.10;99.90;;;;;;5013765;28;20034;-73
2024/03/26 06:04:31;;;;;;;16.50;5.72;;;3.20;99.90;;;;;;5011032;28;20022;-73
2024/03/26 06:06:56;;;;;;;19.05;6.00;;;3.20;99.90;;;;;;5012148;28;20068;-73
2024/03/26 06:09:22;;;;;;;15.18;5.32;;;3.20;99.90;;;;;;5010143;28;20395;-72
2024/03/26 06:11:47;;;;;;;17.65;5.63;;;3.20;99.90;;;;;;5012709;28;20034;-74
2024/03/26 06:14:13;;;;;;;16.05;5.80;;;3.30;99.90;;;;;;5011592;28;20049;-71
2024/03/26 06:16:39;;;;;;;19.85;6.18;;;3.40;99.90;;;;;;5011651;28;20454;-72
2024/03/26 06:19:04;;;;;;;15.68;5.63;;;3.50;99.90;;;;;;5010683;28;20046;-71
2024/03/26 06:21:30;;;;;;;16.38;6.05;;;3.60;99.90;;;;;;5013700;28;20030;-72
2024/03/26 06:23:55;;;;;;;19.80;6.07;;;3.70;99.90;;;;;;5013697;28;20435;-73
2024/03/26 06:26:21;;;;;;;14.88;5.45;;;3.70;99.90;;;;;;5029560;28;20018;-72
2024/03/26 06:28:46;;;;;;;16.88;5.10;;;3.70;99.90;;;;;;5012818;28;20056;-73
2024/03/26 06:31:12;;;;;;;17.38;6.00;;;3.70;99.90;;;;;;5012460;28;20101;-73
2024/03/26 06:33:37;;;;;;;11.02;4.80;;;3.90;99.90;;;;;;5011520;28;20026;-72
2024/03/26 06:36:03;;;;;;;18.48;5.45;;;3.90;99.90;;;;;;5011992;28;20140;-72
2024/03/26 06:38:29;;;;;;;16.30;4.80;;;4.00;99.90;;;;;;5012136;28;20093;-73
2024/03/26 06:40:54;;;;;;;16.75;5.15;;;4.00;99.90;;;;;;5011966;28;20026;-72
2024/03/26 06:43:23;;;;;;;11.18;4.97;;;4.10;99.90;;;;;;5011150;28;20049;-72
2024/03/26 06:45:48;;;;;;;15.93;5.95;;;4.10;99.90;;;;;;5010274;28;20029;-73
2024/03/26 06:48:14;;;;;;;10.88;4.55;;;4.20;99.90;;;;;;5011151;28;20415;-74
2024/03/26 06:50:40;;;;;;;11.73;5.10;;;4.30;99.90;;;;;;5010480;28;20042;-72
2024/03/26 06:53:05;;;;;;;16.23;5.38;;;4.50;99.90;;;;;;5011129;28;20026;-70
2024/03/26 06:55:31;;;;;;;13.02;5.28;;;4.40;99.90;;;;;;5012131;28;20030;-72
2024/03/26 06:57:57;;;;;;;14.35;5.00;;;4.50;99.90;;;;;;5013304;28;20022;-75
2024/03/26 07:00:22;;;;;;;9.68;4.80;;;4.60;99.90;;;;;;5012279;28;20029;-72
2024/03/26 07:02:48;;;;;;;12.65;5.10;;;4.60;99.90;;;;;;5011576;28;20046;-73
2024/03/26 07:05:14;;;;;;;12.82;4.80;;;4.70;99.90;;;;;;5011514;28;20026;-72
2024/03/26 07:07:39;;;;;;;13.32;4.78;;;4.80;99.90;;;;;;5012091;28;20065;-71
2024/03/26 07:10:06;;;;;;;14.90;4.97;;;4.90;99.90;;;;;;5011685;28;20030;-71
2024/03/26 07:12:32;;;;;;;12.80;4.95;;;5.00;99.90;;;;;;5010407;28;20109;-72
2024/03/26 07:14:58;;;;;;;15.27;5.00;;;5.20;99.90;;;;;;5011760;28;20080;-70
2024/03/26 07:17:24;;;;;;;11.70;4.43;;;5.30;99.90;;;;;;5011661;28;20026;-70
2024/03/26 07:19:49;;;;;;;11.70;4.55;;;5.40;99.90;;;;;;5012224;28;20053;-73
2024/03/26 07:22:15;;;;;;;12.80;4.80;;;5.50;99.90;;;;;;5012348;28;20042;-70
2024/03/26 07:24:41;;;;;;;14.07;4.85;;;5.60;99.90;;;;;;5012319;28;20027;-73
2024/03/26 07:27:06;;;;;;;11.27;4.47;;;5.70;99.90;;;;;;5011371;28;20037;-70
2024/03/26 07:29:32;;;;;;;14.70;4.80;;;5.80;99.90;;;;;;5012146;28;20030;-72
2024/03/26 07:31:59;;;;;;;11.57;4.90;;;5.90;99.90;;;;;;5009368;28;20755;-71
2024/03/26 07:34:24;;;;;;;9.02;4.38;;;6.00;99.90;;;;;;5010716;28;20014;-72
2024/03/26 07:36:50;;;;;;;13.02;5.00;;;6.10;99.90;;;;;;5011820;28;20117;-73
2024/03/26 07:39:20;;;;;;;10.75;4.53;;;6.20;99.90;;;;;;5011667;28;20018;-71
2024/03/26 07:41:46;;;;;;;12.52;5.30;;;6.30;99.90;;;;;;5011875;28;20026;-72
2024/03/26 07:44:11;;;;;;;10.30;4.60;;;6.40;99.90;;;;;;5011003;28;20482;-71
2024/03/26 07:46:37;;;;;;;13.13;4.75;;;6.40;99.90;;;;;;5010758;28;20034;-72
2024/03/26 07:49:04;;;;;;;14.88;4.82;;;6.50;99.90;;;;;;5011953;28;20030;-70
2024/03/26 07:51:31;;;;;;;11.65;4.60;;;6.50;99.90;;;;;;5010425;28;20018;-73
2024/03/26 07:53:56;;;;;;;10.68;4.63;;;6.50;99.90;;;;;;5010537;28;20784;-72
2024/03/26 07:56:22;;;;;;;12.35;4.60;;;6.60;99.90;;;;;;5011402;28;20097;-71
2024/03/26 07:58:47;;;;;;;14.60;4.72;;;6.60;99.90;;;;;;5010734;28;20022;-72
2024/03/26 08:01:13;;;;;;;13.45;4.47;;;6.70;99.90;;;;;;5011007;28;20396;-70
2024/03/26 08:03:38;;;;;;;8.82;3.90;;;6.80;99.90;;;;;;5013268;28;20050;-70
2024/03/26 08:06:04;;;;;;;15.25;4.72;;;6.90;99.90;;;;;;5014195;28;20129;-71
2024/03/26 08:08:30;;;;;;;12.75;4.57;;;7.10;99.90;;;;;;5014886;28;20541;-70
2024/03/26 08:10:56;;;;;;;8.70;4.50;;;7.20;99.90;;;;;;5014430;28;20439;-72
2024/03/26 08:13:21;;;;;;;11.48;4.25;;;7.20;99.90;;;;;;5013754;28;20022;-72
2024/03/26 08:15:47;;;;;;;11.13;4.30;;;7.30;99.90;;;;;;5012941;28;20022;-71
2024/03/26 08:18:13;;;;;;;9.73;4.03;;;7.30;99.90;;;;;;5011869;28;20030;-70
2024/03/26 08:20:40;;;;;;;12.70;4.60;;;7.40;99.90;;;;;;5012395;28;20018;-72
2024/03/26 08:23:06;;;;;;;9.48;4.50;;;7.50;99.90;;;;;;5013948;28;20034;-71
2024/03/26 08:25:32;;;;;;;10.07;3.92;;;7.60;99.90;;;;;;5013685;28;20026;-71
2024/03/26 08:27:58;;;;;;;10.32;4.85;;;7.80;99.90;;;;;;5013388;28;20500;-70
2024/03/26 08:30:24;;;;;;;9.45;4.78;;;7.90;99.90;;;;;;5012640;28;20018;-72
2024/03/26 08:32:49;;;;;;;9.23;4.53;;;8.10;99.90;;;;;;5015233;28;20355;-72
2024/03/26 08:35:15;;;;;;;10.27;4.65;;;8.30;99.90;;;;;;5014902;28;20490;-71
2024/03/26 08:37:40;;;;;;;12.43;4.90;;;8.60;99.90;;;;;;5013544;28;20647;-72
2024/03/26 08:40:08;;;;;;;5.43;3.67;;;8.80;99.90;;;;;;5012111;28;20030;-70
2024/03/26 08:42:35;;;;;;;8.93;3.95;;;9.10;99.90;;;;;;5014741;28;20073;-75
2024/03/26 08:45:01;;;;;;;11.05;4.72;;;9.40;99.90;;;;;;5031705;28;20067;-73
2024/03/26 08:47:27;;;;;;;9.98;4.03;;;9.60;99.90;;;;;;5016081;28;20026;-72
2024/03/26 08:49:53;;;;;;;7.78;3.70;;;9.70;99.90;;;;;;5014946;28;20074;-73
2024/03/26 08:52:18;;;;;;;8.60;4.32;;;9.90;99.90;;;;;;5013108;28;20018;-72
2024/03/26 08:54:44;;;;;;;6.93;3.95;;;10.10;99.90;;;;;;5014048;28;20153;-75
2024/03/26 08:57:09;;;;;;;6.65;3.45;;;10.10;99.90;;;;;;5013661;28;20050;-72
2024/03/26 08:59:37;;;;;;;9.10;3.47;;;10.30;99.90;;;;;;5015426;28;20096;-72
2024/03/26 09:02:03;;;;;;;10.50;3.78;;;10.40;99.90;;;;;;5014400;28;20018;-73
2024/03/26 09:04:28;;;;;;;8.80;3.55;;;10.60;99.90;;;;;;5011887;28;20070;-74
2024/03/26 09:06:54;;;;;;;7.85;3.50;;;10.90;99.90;;;;;;5013440;28;20069;-72
2024/03/26 09:09:20;;;;;;;14.65;3.63;;;11.10;99.90;;;;;;5013857;28;20100;-70
2024/03/26 09:11:45;;;;;;;10.07;3.88;;;11.20;99.90;;;;;;5014660;28;20409;-73
2024/03/26 09:14:11;;;;;;;5.80;3.25;;;11.30;99.90;;;;;;5012256;28;20278;-73
2024/03/26 09:16:36;;;;;;;10.70;4.57;;;11.40;99.90;;;;;;5013653;28;20027;-73
2024/03/26 09:19:02;;;;;;;8.85;3.47;;;11.50;99.90;;;;;;5013819;28;20118;-72
2024/03/26 09:21:28;;;;;;;6.25;3.60;;;11.60;99.90;;;;;;5015203;28;20030;-73
2024/03/26 09:23:53;;;;;;;6.90;3.13;;;11.60;99.90;;;;;;5014366;28;20044;-74
2024/03/26 09:26:19;;;;;;;6.55;3.65;;;11.70;99.90;;;;;;5012584;28;20031;-74
2024/03/26 09:28:45;;;;;;;5.97;3.13;;;11.80;99.90;;;;;;5014074;28;20025;-73
2024/03/26 09:31:10;;;;;;;7.53;3.50;;;12.00;99.90;;;;;;5013120;28;20042;-72
2024/03/26 09:33:36;;;;;;;5.85;3.25;;;12.00;99.90;;;;;;5012644;28;20098;-72
2024/03/26 09:36:01;;;;;;;5.25;3.10;;;12.10;99.90;;;;;;5013492;28;20113;-72
2024/03/26 09:38:27;;;;;;;6.95;3.05;;;12.20;99.90;;;;;;5012832;28;20117;-73
2024/03/26 09:40:56;;;;;;;4.30;2.78;;;12.30;99.90;;;;;;5013302;28;20022;-72
2024/03/26 09:43:23;;;;;;;9.15;2.90;;;12.50;99.90;;;;;;5014124;28;20069;-72
2024/03/26 09:45:49;;;;;;;6.30;3.10;;;12.60;99.90;;;;;;5035503;28;20030;-73
2024/03/26 09:48:15;;;;;;;7.05;3.17;;;12.70;99.90;;;;;;5013961;28;20033;-73
2024/03/26 09:50:42;;;;;;;4.57;2.30;;;12.90;99.90;;;;;;5013646;28;20030;-72
2024/03/26 09:53:11;;;;;;;6.30;2.72;;;12.90;99.90;;;;;;5013547;28;20072;-71
2024/03/26 09:55:38;;;;;;;5.38;2.58;;;12.90;99.90;;;;;;5012298;28;20022;-73
2024/03/26 09:58:04;;;;;;;5.38;2.60;;;13.00;99.90;;;;;;5013500;28;20487;-75
2024/03/26 10:00:31;;;;;;;4.07;2.42;;;12.80;99.90;;;;;;5015199;28;20052;-74
2024/03/26 10:02:59;;;;;;;5.25;3.15;;;12.70;99.90;;;;;;5013051;28;20121;-76
2024/03/26 10:05:25;;;;;;;5.35;2.95;;;12.60;99.90;;;;;;5013789;28;20061;-74
2024/03/26 10:07:51;;;;;;;6.38;2.83;;;12.40;99.90;;;;;;5013194;28;20064;-75
2024/03/26 10:10:18;;;;;;;6.13;2.90;;;12.30;99.90;;;;;;5020645;28;20018;-75
2024/03/26 10:12:43;;;;;;;6.25;3.15;;;12.20;99.90;;;;;;5013596;28;20021;-74
2024/03/26 10:15:09;;;;;;;7.00;3.58;;;12.30;99.90;;;;;;5013191;28;20052;-77
2024/03/26 10:17:36;;;;;;;5.82;3.30;;;12.40;99.90;;;;;;5011997;28;20030;-74
2024/03/26 10:20:03;;;;;;;4.35;2.70;;;12.50;99.90;;;;;;5012676;28;20030;-75
2024/03/26 10:22:28;;;;;;;6.03;2.63;;;12.70;99.90;;;;;;5012131;28;20041;-76
2024/03/26 10:24:54;;;;;;;5.75;2.70;;;13.00;99.90;;;;;;5009295;28;20057;-74
2024/03/26 10:27:20;;;;;;;4.38;2.60;;;13.30;99.90;;;;;;5010096;28;20030;-75
2024/03/26 10:29:45;;;;;;;10.55;3.67;;;13.50;99.90;;;;;;5011095;28;20475;-76
2024/03/26 10:32:15;;;;;;;4.03;2.33;;;13.60;99.90;;;;;;5011513;28;20030;-75
2024/03/26 10:34:43;;;;;;;6.53;2.50;;;13.50;99.90;;;;;;5027429;28;20033;-70
2024/03/26 10:37:09;;;;;;;5.28;3.10;;;13.40;99.90;;;;;;5011223;28;20022;-76
2024/03/26 10:39:36;;;;;;;4.38;2.05;;;13.40;99.90;;;;;;5011292;28;20040;-74
2024/03/26 10:42:03;;;;;;;4.40;2.33;;;13.50;99.90;;;;;;5026669;28;20054;-74
2024/03/26 10:44:31;;;;;;;5.38;2.35;;;13.50;99.90;;;;;;5012069;28;20022;-72
2024/03/26 10:46:58;;;;;;;5.80;2.25;;;13.60;99.90;;;;;;5012634;28;20035;-73
2024/03/26 10:49:25;;;;;;;5.32;2.05;;;13.50;99.90;;;;;;5010672;28;20030;-77
2024/03/26 10:51:53;;;;;;;2.97;1.98;;;13.60;99.90;;;;;;5013377;28;20022;-73
2024/03/26 10:54:21;;;;;;;3.92;2.20;;;13.50;99.90;;;;;;5011068;28;20543;-76
2024/03/26 10:56:48;;;;;;;7.75;2.10;;;13.50;99.90;;;;;;5012098;28;20096;-75
2024/03/26 10:59:14;;;;;;;5.07;2.58;;;13.50;99.90;;;;;;5011584;28;20428;-72
2024/03/26 11:01:42;;;;;;;5.03;2.50;;;13.50;99.90;;;;;;5011779;28;20053;-74
2024/03/26 11:04:08;;;;;;;4.35;2.28;;;13.60;99.90;;;;;;5011605;28;20281;-74
2024/03/26 11:06:34;;;;;;;4.55;2.10;;;13.70;99.90;;;;;;5009858;28;20026;-75
2024/03/26 11:09:05;;;;;;;4.85;2.10;;;14.10;99.90;;;;;;5011291;28;20975;-74
2024/03/26 11:11:35;;;;;;;4.53;2.22;;;14.30;99.90;;;;;;5009905;28;20033;-73
2024/03/26 11:14:03;;;;;;;3.88;1.83;;;14.30;99.90;;;;;;5033408;28;20030;-74
2024/03/26 11:16:34;;;;;;;4.93;2.40;;;14.30;99.90;;;;;;5025819;28;20359;-73
2024/03/26 11:19:21;;;;;;;5.20;2.03;;;14.10;99.90;;;;;;5010297;28;20042;-75
2024/03/26 11:21:49;;;;;;;4.28;2.03;;;14.00;99.90;;;;;;5010580;28;20116;-73
2024/03/26 11:24:30;;;;;;;2.40;1.60;;;13.90;99.90;;;;;;5012014;28;20442;-73
2024/03/26 11:26:58;;;;;;;8.52;2.50;;;13.70;99.90;;;;;;5009507;28;20137;-73
2024/03/26 11:29:24;;;;;;;3.78;2.00;;;13.40;99.90;;;;;;5011424;28;20053;-72
2024/03/26 11:31:51;;;;;;;3.55;2.25;;;13.20;99.90;;;;;;5011392;28;20034;-72
2024/03/26 11:34:20;;;;;;;5.65;2.22;;;13.10;99.90;;;;;;5010736;28;20060;-72
2024/03/26 11:36:47;;;;;;;3.00;2.08;;;13.00;99.90;;;;;;5013764;28;20085;-73
2024/03/26 11:39:16;;;;;;;4.25;2.10;;;12.90;99.90;;;;;;5013602;28;20032;-72
2024/03/26 11:41:42;;;;;;;4.75;2.30;;;12.90;99.90;;;;;;5013934;28;20034;-76
2024/03/26 11:44:09;;;;;;;4.43;2.08;;;13.00;99.90;;;;;;5014580;28;20042;-74
2024/03/26 11:46:35;;;;;;;4.53;2.10;;;13.20;99.90;;;;;;5012976;28;20037;-76
2024/03/26 11:49:08;;;;;;;3.50;2.08;;;13.30;99.90;;;;;;5015079;28;20031;-74
2024/03/26 11:51:35;;;;;;;4.97;2.65;;;13.40;99.90;;;;;;5014236;28;20410;-72
2024/03/26 11:54:01;;;;;;;3.95;2.20;;;13.40;99.90;;;;;;5015056;28;20030;-78
2024/03/26 11:56:27;;;;;;;6.45;2.55;;;13.40;99.90;;;;;;5013240;28;20026;-74
2024/03/26 11:58:53;;;;;;;5.07;2.30;;;13.30;99.90;;;;;;5014658;28;20030;-74
2024/03/26 12:01:24;;;;;;;4.90;2.47;;;13.30;99.90;;;;;;5037526;28;20028;-76
2024/03/26 12:03:51;;;;;;;4.45;2.22;;;13.30;99.90;;;;;;5013638;28;20109;-75
2024/03/26 12:06:19;;;;;;;5.82;2.30;;;13.30;99.90;;;;;;5013890;28;20026;-75
2024/03/26 12:08:45;;;;;;;4.18;2.53;;;13.20;99.90;;;;;;5012526;28;20092;-74
2024/03/26 12:11:11;;;;;;;6.15;2.95;;;13.20;99.90;;;;;;5013908;28;20038;-77
2024/03/26 12:13:37;;;;;;;5.78;2.95;;;13.20;99.90;;;;;;5014903;28;20088;-76
2024/03/26 12:16:02;;;;;;;6.35;3.25;;;13.20;99.90;;;;;;5013343;28;20026;-75
2024/03/26 12:18:31;;;;;;;8.63;3.60;;;13.10;99.90;;;;;;5013588;28;20026;-73
2024/03/26 12:20:57;;;;;;;5.32;2.50;;;13.00;99.90;;;;;;5014685;28;20034;-79
2024/03/26 12:23:22;;;;;;;7.03;2.78;;;13.00;99.90;;;;;;5012194;28;20093;-75
2024/03/26 12:25:48;;;;;;;7.97;3.60;;;12.90;99.90;;;;;;5013454;28;20036;-74
2024/03/26 12:28:14;;;;;;;5.28;2.90;;;12.80;99.90;;;;;;5015461;28;20037;-76
2024/03/26 12:30:43;;;;;;;6.70;3.47;;;12.70;99.90;;;;;;5013735;28;20085;-75
2024/03/26 12:33:08;;;;;;;8.20;3.80;;;12.60;99.90;;;;;;5014931;28;20056;-75
2024/03/26 12:35:34;;;;;;;6.72;3.60;;;12.60;99.90;;;;;;5014917;28;20633;-76
2024/03/26 12:38:00;;;;;;;5.75;3.70;;;12.60;99.90;;;;;;5035652;28;20034;-75
2024/03/26 12:40:26;;;;;;;5.75;3.10;;;12.60;99.90;;;;;;5015015;28;20037;-75
2024/03/26 12:42:51;;;;;;;6.20;3.42;;;12.60;99.90;;;;;;5014339;28;20129;-75